createdAt,value
2023-03-03T00:00:16.096Z,1.7
2023-03-03T00:02:14.966Z,1.8
2023-03-03T00:04:15.120Z,1.6
2023-03-03T00:06:15.008Z,1.5
2023-03-03T00:08:14.688Z,1.7
2023-03-03T00:10:14.637Z,1.8
2023-03-03T00:12:23.108Z,1.9
2023-03-03T00:14:21.776Z,1.6
2023-03-03T00:16:20.786Z,1.6
2023-03-03T00:18:22.059Z,1.5
2023-03-03T00:20:30.428Z,1.6
2023-03-03T00:22:20.464Z,1.8
2023-03-03T00:24:19.091Z,1.6
2023-03-03T00:26:21.431Z,1.8
2023-03-03T00:28:23.489Z,1.4
2023-03-03T00:30:22.541Z,1.7
2023-03-03T00:32:26.029Z,1.5
2023-03-03T00:34:24.138Z,1.7
2023-03-03T00:36:27.906Z,1.7
2023-03-03T00:38:16.812Z,1.4
2023-03-03T00:40:21.686Z,1.6
2023-03-03T00:42:14.350Z,1.6
2023-03-03T00:44:32.744Z,1.5
2023-03-03T00:46:17.114Z,1.7
2023-03-03T00:48:23.505Z,1.3
2023-03-03T00:50:31.369Z,1.5
2023-03-03T00:52:15.717Z,1.8
2023-03-03T00:54:12.228Z,1.8
2023-03-03T00:56:12.158Z,1.5
2023-03-03T00:58:14.266Z,1.3
2023-03-03T01:00:14.688Z,1.4
2023-03-03T01:02:11.794Z,1.6
2023-03-03T01:04:11.612Z,1.5
2023-03-03T01:06:12.088Z,1.9
2023-03-03T01:08:12.051Z,1.8
2023-03-03T01:10:12.241Z,1.8
2023-03-03T01:12:11.614Z,1.7
2023-03-03T01:14:11.279Z,2
2023-03-03T01:16:11.065Z,2
2023-03-03T01:18:11.750Z,1.7
2023-03-03T01:20:13.706Z,1.5
2023-03-03T01:22:10.648Z,1.4
2023-03-03T01:24:11.057Z,1.8
2023-03-03T01:26:10.433Z,1.8
2023-03-03T01:28:10.605Z,2.2
2023-03-03T01:30:10.923Z,1.6
2023-03-03T01:32:10.446Z,1.5
2023-03-03T01:34:10.029Z,1.8
2023-03-03T01:36:09.967Z,1.5
2023-03-03T01:38:09.877Z,1.7
2023-03-03T01:40:14.851Z,1.6
2023-03-03T01:42:09.543Z,1.8
2023-03-03T01:44:13.675Z,1.8
2023-03-03T01:46:30.999Z,1.8
2023-03-03T01:48:13.342Z,1.4
2023-03-03T01:50:14.454Z,1.7
2023-03-03T01:52:14.172Z,1.8
2023-03-03T01:54:14.138Z,1.9
2023-03-03T01:56:11.177Z,1.6
2023-03-03T01:58:13.754Z,1.8
2023-03-03T02:00:14.601Z,1.8
2023-03-03T02:02:09.088Z,1.8
2023-03-03T02:04:08.921Z,1.7
2023-03-03T02:06:12.793Z,1.9
2023-03-03T02:08:11.897Z,1.9
2023-03-03T02:10:11.724Z,1.8
2023-03-03T02:12:11.229Z,1.5
2023-03-03T02:14:07.784Z,1.7
2023-03-03T02:16:08.535Z,1.6
2023-03-03T02:18:12.360Z,1.8
2023-03-03T02:20:14.623Z,1.7
2023-03-03T02:22:07.279Z,1.8
2023-03-03T02:24:13.580Z,1.6
2023-03-03T02:26:09.866Z,1.9
2023-03-03T02:28:07.067Z,1.9
2023-03-03T02:30:18.312Z,1.7
2023-03-03T02:32:06.572Z,1.8
2023-03-03T02:34:07.240Z,2.4
2023-03-03T02:36:07.146Z,1.8
2023-03-03T02:38:17.290Z,1.9
2023-03-03T02:40:11.485Z,2
2023-03-03T02:42:15.941Z,1.4
2023-03-03T02:44:07.846Z,1.5
2023-03-03T02:46:05.969Z,1.8
2023-03-03T02:48:06.960Z,1.4
2023-03-03T02:50:06.318Z,1.6
2023-03-03T02:52:08.551Z,1.7
2023-03-03T02:54:06.346Z,1.8
2023-03-03T02:56:06.441Z,1.9
2023-03-03T02:58:05.406Z,1.8
2023-03-03T03:00:06.798Z,1.8
2023-03-03T03:02:05.060Z,1.5
2023-03-03T03:04:09.520Z,1.5
2023-03-03T03:06:05.244Z,1.6
2023-03-03T03:08:05.532Z,1.8
2023-03-03T03:10:06.382Z,1.5
2023-03-03T03:12:06.492Z,1.8
2023-03-03T03:14:06.448Z,1.5
2023-03-03T03:16:04.985Z,1.8
2023-03-03T03:18:04.937Z,1.4
2023-03-03T03:20:04.889Z,1.9
2023-03-03T03:22:05.393Z,1.6
2023-03-03T03:24:04.896Z,1.5
2023-03-03T03:26:04.913Z,1.5
2023-03-03T03:28:04.009Z,1.7
2023-03-03T03:30:04.610Z,1.6
2023-03-03T03:32:03.520Z,1.6
2023-03-03T03:34:03.729Z,2
2023-03-03T03:36:04.340Z,1.7
2023-03-03T03:38:04.081Z,1.8
2023-03-03T03:40:03.937Z,1.7
2023-03-03T03:42:03.218Z,1.7
2023-03-03T03:44:02.971Z,1.7
2023-03-03T03:46:04.074Z,2.1
2023-03-03T03:48:03.936Z,2
2023-03-03T03:50:02.692Z,1.6
2023-03-03T03:52:04.021Z,1.9
2023-03-03T03:54:02.409Z,1.7
2023-03-03T03:56:03.178Z,2
2023-03-03T03:58:02.466Z,2
2023-03-03T04:00:03.329Z,2
2023-03-03T04:02:02.198Z,1.8
2023-03-03T04:04:01.777Z,1.9
2023-03-03T04:06:01.972Z,2.3
2023-03-03T04:08:01.814Z,2.1
2023-03-03T04:10:01.961Z,1.8
2023-03-03T04:12:02.424Z,2
2023-03-03T04:14:01.523Z,2.6
2023-03-03T04:16:01.354Z,1.9
2023-03-03T04:18:01.481Z,4
2023-03-03T04:20:01.191Z,2.5
2023-03-03T04:22:00.814Z,4.2
2023-03-03T04:24:01.967Z,3.1
2023-03-03T04:26:00.866Z,5
2023-03-03T04:28:00.599Z,2.9
2023-03-03T04:30:01.183Z,3.8
2023-03-03T04:32:00.787Z,2.4
2023-03-03T04:34:00.546Z,4.4
2023-03-03T04:36:00.261Z,2.4
2023-03-03T04:38:00.302Z,3.2
2023-03-03T04:40:00.536Z,3.1
2023-03-03T04:42:00.356Z,2.4
2023-03-03T04:44:00.599Z,4.5
2023-03-03T04:45:59.992Z,2.8
2023-03-03T04:47:59.741Z,2.8
2023-03-03T04:50:00.720Z,2.5
2023-03-03T04:51:59.949Z,2.6
2023-03-03T04:53:59.435Z,2.1
2023-03-03T04:55:59.507Z,2.4
2023-03-03T04:57:59.405Z,2.8
2023-03-03T04:59:59.274Z,2.7
2023-03-03T05:01:59.467Z,2.6
2023-03-03T05:03:58.872Z,2.1
2023-03-03T05:05:58.772Z,2.2
2023-03-03T05:07:58.730Z,2.2
2023-03-03T05:09:58.880Z,2.5
2023-03-03T05:11:58.588Z,2.5
2023-03-03T05:13:58.517Z,2.5
2023-03-03T05:15:58.460Z,3.1
2023-03-03T05:17:58.884Z,2.4
2023-03-03T05:19:58.260Z,1.8
2023-03-03T05:21:58.260Z,2.2
2023-03-03T05:23:58.130Z,2.3
2023-03-03T05:25:58.079Z,2.5
2023-03-03T05:27:58.019Z,3
2023-03-03T05:29:57.809Z,3.7
2023-03-03T05:31:57.927Z,4.2
2023-03-03T05:33:57.775Z,7.5
2023-03-03T05:35:57.703Z,3.9
2023-03-03T05:37:57.789Z,2.8
2023-03-03T05:39:57.511Z,2.8
2023-03-03T05:41:57.541Z,3.1
2023-03-03T05:43:57.385Z,2.3
2023-03-03T05:45:57.967Z,6.6
2023-03-03T05:47:57.192Z,2
2023-03-03T05:49:57.216Z,2.3
2023-03-03T05:51:56.990Z,2.3
2023-03-03T05:53:56.997Z,2.4
2023-03-03T05:55:56.915Z,1.9
2023-03-03T05:57:56.881Z,2.3
2023-03-03T05:59:56.855Z,2
2023-03-03T06:01:56.772Z,1.7
2023-03-03T06:03:56.949Z,2.2
2023-03-03T06:05:56.722Z,2.1
2023-03-03T06:07:56.560Z,2.1
2023-03-03T06:09:57.145Z,2
2023-03-03T06:11:56.326Z,2.2
2023-03-03T06:13:56.441Z,2.4
2023-03-03T06:15:56.405Z,1.6
2023-03-03T06:17:56.414Z,2.2
2023-03-03T06:19:56.172Z,2
2023-03-03T06:21:56.168Z,2
2023-03-03T06:23:56.193Z,1.8
2023-03-03T06:25:57.474Z,1.6
2023-03-03T06:27:57.147Z,1.8
2023-03-03T06:29:55.934Z,1.9
2023-03-03T06:31:56.095Z,2
2023-03-03T06:33:55.867Z,2
2023-03-03T06:35:55.903Z,1.6
2023-03-03T06:37:55.927Z,1.7
2023-03-03T06:39:55.646Z,2.8
2023-03-03T06:41:55.611Z,1.8
2023-03-03T06:43:55.565Z,1.6
2023-03-03T06:45:55.487Z,1.9
2023-03-03T06:47:55.739Z,1.8
2023-03-03T06:49:55.229Z,1.6
2023-03-03T06:51:56.313Z,1.5
2023-03-03T06:53:56.627Z,1.9
2023-03-03T06:55:57.722Z,1.7
2023-03-03T06:57:55.162Z,1.8
2023-03-03T06:59:59.533Z,2.4
2023-03-03T07:01:55.474Z,1.9
2023-03-03T07:03:54.905Z,1.4
2023-03-03T07:05:55.061Z,1.4
2023-03-03T07:07:55.456Z,1.4
2023-03-03T07:09:56.475Z,1.1
2023-03-03T07:12:00.155Z,1.4
2023-03-03T07:13:55.016Z,1.3
2023-03-03T07:15:58.545Z,2
2023-03-03T07:17:55.991Z,1.5
2023-03-03T07:19:54.607Z,1.7
2023-03-03T07:21:54.664Z,1.4
2023-03-03T07:23:54.486Z,1.3
2023-03-03T07:25:54.886Z,1.6
2023-03-03T07:27:57.859Z,1.5
2023-03-03T07:30:08.595Z,1.8
2023-03-03T07:31:55.530Z,1.7
2023-03-03T07:33:56.267Z,1.3
2023-03-03T07:35:56.978Z,1.5
2023-03-03T07:37:55.272Z,1.4
2023-03-03T07:39:54.796Z,1.5
2023-03-03T07:41:59.973Z,2.2
2023-03-03T07:43:58.282Z,2.3
2023-03-03T07:45:57.853Z,1.7
2023-03-03T07:48:00.834Z,1.4
2023-03-03T07:49:55.558Z,1.6
2023-03-03T07:51:56.053Z,1.9
2023-03-03T07:54:00.155Z,1.5
2023-03-03T07:55:54.132Z,1.3
2023-03-03T07:57:54.640Z,1.9
2023-03-03T07:59:59.660Z,1.7
2023-03-03T08:01:55.435Z,1.7
2023-03-03T08:03:54.382Z,1.7
2023-03-03T08:05:53.675Z,1.5
2023-03-03T08:07:55.017Z,1.7
2023-03-03T08:09:59.278Z,1.6
2023-03-03T08:11:57.433Z,1.9
2023-03-03T08:13:53.560Z,1.9
2023-03-03T08:15:59.177Z,1.9
2023-03-03T08:17:54.683Z,1.4
2023-03-03T08:19:55.384Z,1.8
2023-03-03T08:22:00.507Z,1.4
2023-03-03T08:23:53.898Z,1.5
2023-03-03T08:25:53.835Z,1.9
2023-03-03T08:27:53.340Z,1.9
2023-03-03T08:29:53.382Z,1.6
2023-03-03T08:31:53.350Z,1.7
2023-03-03T08:33:53.306Z,1.6
2023-03-03T08:35:53.329Z,1.7
2023-03-03T08:37:53.461Z,2.7
2023-03-03T08:39:53.296Z,1.8
2023-03-03T08:41:53.144Z,1.7
2023-03-03T08:43:53.174Z,2
2023-03-03T08:45:57.081Z,2
2023-03-03T08:47:53.850Z,1.5
2023-03-03T08:49:53.215Z,1.8
2023-03-03T08:51:53.117Z,1.4
2023-03-03T08:53:53.323Z,1.5
2023-03-03T08:55:53.156Z,1.6
2023-03-03T08:57:53.075Z,1.7
2023-03-03T08:59:53.160Z,2
2023-03-03T09:01:53.194Z,1.6
2023-03-03T09:03:53.323Z,1.7
2023-03-03T09:05:53.193Z,2.2
2023-03-03T09:07:54.598Z,1.7
2023-03-03T09:09:53.257Z,1.7
2023-03-03T09:11:57.336Z,1.8
2023-03-03T09:14:01.658Z,1.8
2023-03-03T09:15:53.191Z,1.8
2023-03-03T09:17:53.684Z,2.5
2023-03-03T09:19:57.253Z,1.8
2023-03-03T09:21:54.472Z,1.7
2023-03-03T09:23:56.254Z,1.9
2023-03-03T09:25:53.563Z,2.4
2023-03-03T09:27:54.166Z,1.8
2023-03-03T09:29:53.152Z,1.8
2023-03-03T09:31:54.776Z,1.6
2023-03-03T09:33:53.613Z,1.5
2023-03-03T09:36:00.674Z,1.6
2023-03-03T09:37:53.157Z,1.6
2023-03-03T09:39:54.919Z,1.4
2023-03-03T09:42:25.193Z,2
2023-03-03T09:44:17.866Z,1.7
2023-03-03T09:46:03.905Z,1.9
2023-03-03T09:48:10.312Z,2.1
2023-03-03T09:50:03.339Z,1.6
2023-03-03T09:52:07.213Z,4.1
2023-03-03T09:54:04.935Z,2.1
2023-03-03T09:56:00.884Z,1.7
2023-03-03T09:58:11.307Z,1.4
2023-03-03T10:00:15.479Z,3.3
2023-03-03T10:02:10.077Z,1.4
2023-03-03T10:04:05.716Z,1.6
2023-03-03T10:06:01.469Z,1.6
2023-03-03T10:08:09.555Z,1.8
2023-03-03T10:10:10.550Z,1.4
2023-03-03T10:12:04.156Z,1.5
2023-03-03T10:14:04.776Z,1.5
2023-03-03T10:16:17.610Z,1.8
2023-03-03T10:17:58.916Z,1.6
2023-03-03T10:20:05.825Z,1.7
2023-03-03T10:22:01.807Z,1.4
2023-03-03T10:23:58.875Z,1.3
2023-03-03T10:26:04.538Z,1.4
2023-03-03T10:28:06.274Z,1.3
2023-03-03T10:30:02.841Z,2.6
2023-03-03T10:32:08.980Z,1.4
2023-03-03T10:34:02.260Z,1.3
2023-03-03T10:36:08.356Z,1.3
2023-03-03T10:38:11.873Z,1.6
2023-03-03T10:40:07.754Z,1.5
2023-03-03T10:42:07.208Z,2
2023-03-03T10:44:08.331Z,1.6
2023-03-03T10:46:08.933Z,1.6
2023-03-03T10:48:05.941Z,1.5
2023-03-03T10:50:05.886Z,1.5
2023-03-03T10:52:06.460Z,1.4
2023-03-03T10:54:04.254Z,1.3
2023-03-03T10:56:15.369Z,1.1
2023-03-03T10:58:07.263Z,1.3
2023-03-03T11:00:07.694Z,1.2
2023-03-03T11:01:57.597Z,1.3
2023-03-03T11:04:16.013Z,1.2
2023-03-03T11:05:57.951Z,1.4
2023-03-03T11:07:57.789Z,1.1
2023-03-03T11:10:08.649Z,1
2023-03-03T11:11:59.894Z,1
2023-03-03T11:14:03.140Z,1.5
2023-03-03T11:16:05.362Z,1.8
2023-03-03T11:18:11.750Z,1.7
2023-03-03T11:20:07.757Z,1.3
2023-03-03T11:22:04.374Z,1.4
2023-03-03T11:24:00.942Z,1.3
2023-03-03T11:26:07.197Z,1.1
2023-03-03T11:28:17.634Z,1.6
2023-03-03T11:30:06.442Z,1.3
2023-03-03T11:31:57.122Z,1.7
2023-03-03T11:34:00.308Z,1.5
2023-03-03T11:36:08.487Z,1.3
2023-03-03T11:38:06.022Z,1.3
2023-03-03T11:39:57.621Z,1.4
2023-03-03T11:42:05.033Z,1.2
2023-03-03T11:43:59.836Z,1.4
2023-03-03T11:45:58.203Z,1.4
2023-03-03T11:48:00.432Z,1.5
2023-03-03T11:50:00.291Z,1
2023-03-03T11:52:03.233Z,1.5
2023-03-03T11:53:59.322Z,1.9
2023-03-03T11:55:59.621Z,1.5
2023-03-03T11:58:03.758Z,1.1
2023-03-03T12:00:12.029Z,1.2
2023-03-03T12:01:57.130Z,1.2
2023-03-03T12:03:57.836Z,1.4
2023-03-03T12:06:01.259Z,1.1
2023-03-03T12:08:03.377Z,1.3
2023-03-03T12:10:02.199Z,1.6
2023-03-03T12:12:02.744Z,1.9
2023-03-03T12:13:59.798Z,1.5
2023-03-03T12:16:04.116Z,1.2
2023-03-03T12:18:11.307Z,1.4
2023-03-03T12:20:02.556Z,1.2
2023-03-03T12:22:13.440Z,1.5
2023-03-03T12:24:11.370Z,1.3
2023-03-03T12:26:00.933Z,1.3
2023-03-03T12:28:00.302Z,1.4
2023-03-03T12:30:05.683Z,1.4
2023-03-03T12:32:02.583Z,1.5
2023-03-03T12:33:57.615Z,1.2
2023-03-03T12:36:04.565Z,1.2
2023-03-03T12:38:03.260Z,1.6
2023-03-03T12:40:05.263Z,1.7
2023-03-03T12:41:59.973Z,1.2
2023-03-03T12:44:02.095Z,1.2
2023-03-03T12:46:05.687Z,1.7
2023-03-03T12:48:00.383Z,1.7
2023-03-03T12:50:10.462Z,1
2023-03-03T12:52:08.408Z,1.6
2023-03-03T12:54:13.569Z,1.3
2023-03-03T12:56:00.099Z,2
2023-03-03T12:58:00.845Z,1.5
2023-03-03T13:00:17.698Z,1.5
2023-03-03T13:02:15.085Z,1.3
2023-03-03T13:04:03.909Z,1.3
2023-03-03T13:06:00.608Z,1.3
2023-03-03T13:08:10.529Z,1.3
2023-03-03T13:10:08.197Z,1.6
2023-03-03T13:12:04.756Z,1.5
2023-03-03T13:14:00.419Z,1.5
2023-03-03T13:16:06.089Z,1.5
2023-03-03T13:18:04.135Z,1.2
2023-03-03T13:19:57.535Z,1.2
2023-03-03T13:21:59.012Z,1.3
2023-03-03T13:24:02.637Z,7.5
2023-03-03T13:25:58.049Z,1.4
2023-03-03T13:28:00.234Z,1
2023-03-03T13:30:00.725Z,1
2023-03-03T13:31:58.445Z,1.2
2023-03-03T13:33:56.376Z,1.3
2023-03-03T13:35:57.552Z,1.1
2023-03-03T13:37:57.216Z,1.2
2023-03-03T13:39:59.260Z,1.2
2023-03-03T13:42:00.411Z,1.2
2023-03-03T13:43:59.318Z,1.1
2023-03-03T13:46:03.587Z,1.3
2023-03-03T13:48:06.201Z,1.2
2023-03-03T13:50:19.238Z,1.2
2023-03-03T13:52:01.833Z,1.5
2023-03-03T13:54:03.673Z,1.5
2023-03-03T13:56:00.549Z,1.2
2023-03-03T13:58:03.098Z,1.6
2023-03-03T14:00:12.771Z,0.8
2023-03-03T14:02:00.894Z,1
2023-03-03T14:04:01.166Z,1.9
2023-03-03T14:06:00.832Z,1.1
2023-03-03T14:07:59.223Z,0.9
2023-03-03T14:10:04.241Z,1.1
2023-03-03T14:12:00.183Z,1
2023-03-03T14:14:02.326Z,1.1
2023-03-03T14:15:57.641Z,0.9
2023-03-03T14:18:17.832Z,1
2023-03-03T14:20:06.097Z,0.9
2023-03-03T14:22:06.528Z,1.2
2023-03-03T14:24:01.458Z,1.3
2023-03-03T14:25:58.027Z,1
2023-03-03T14:28:02.076Z,1.2
2023-03-03T14:29:53.418Z,1.1
2023-03-03T14:31:54.075Z,1.3
2023-03-03T14:33:59.569Z,1.2
2023-03-03T14:36:04.540Z,1.3
2023-03-03T14:38:01.648Z,1.3
2023-03-03T14:40:13.591Z,1.2
2023-03-03T14:41:52.948Z,1.3
2023-03-03T14:43:58.533Z,1.7
2023-03-03T14:45:53.639Z,1.4
2023-03-03T14:47:52.946Z,1.8
2023-03-03T14:49:53.826Z,1.8
2023-03-03T14:51:52.793Z,2
2023-03-03T14:53:53.040Z,2.1
2023-03-03T14:55:53.482Z,2
2023-03-03T14:57:52.679Z,2.5
2023-03-03T14:59:58.149Z,2.2
2023-03-03T15:02:02.196Z,2
2023-03-03T15:03:59.652Z,1.6
2023-03-03T15:05:56.251Z,2
2023-03-03T15:07:54.640Z,2.3
2023-03-03T15:09:52.268Z,2
2023-03-03T15:11:53.958Z,2.4
2023-03-03T15:13:52.346Z,1.8
2023-03-03T15:16:01.026Z,1.7
2023-03-03T15:17:57.482Z,1.8
2023-03-03T15:20:01.934Z,1.8
2023-03-03T15:22:02.190Z,2.9
2023-03-03T15:24:00.736Z,3.2
2023-03-03T15:25:59.103Z,2.7
2023-03-03T15:28:08.880Z,2.8
2023-03-03T15:30:03.741Z,2.5
2023-03-03T15:31:59.824Z,2.1
2023-03-03T15:34:03.181Z,2.1
2023-03-03T15:35:58.376Z,2.1
2023-03-03T15:37:59.671Z,2.2
2023-03-03T15:40:00.221Z,2.5
2023-03-03T15:42:02.690Z,3.1
2023-03-03T15:44:04.941Z,2.6
2023-03-03T15:45:57.956Z,3.1
2023-03-03T15:48:06.015Z,2.9
2023-03-03T15:50:07.335Z,2.6
2023-03-03T15:52:04.185Z,2.8
2023-03-03T15:54:17.266Z,2.3
2023-03-03T15:56:03.385Z,1.8
2023-03-03T15:58:04.460Z,1.5
2023-03-03T16:00:15.993Z,1.7
2023-03-03T16:01:59.132Z,1.7
2023-03-03T16:03:57.206Z,1.6
2023-03-03T16:05:54.771Z,1.4
2023-03-03T16:08:01.249Z,1.3
2023-03-03T16:10:02.634Z,1.3
2023-03-03T16:11:55.582Z,1.6
2023-03-03T16:14:03.277Z,1.8
2023-03-03T16:16:01.925Z,1.8
2023-03-03T16:17:58.738Z,1.5
2023-03-03T16:20:01.537Z,2.4
2023-03-03T16:22:10.764Z,2
2023-03-03T16:23:52.076Z,2.7
2023-03-03T16:26:05.978Z,1.7
2023-03-03T16:27:55.774Z,1.9
2023-03-03T16:30:02.424Z,1.9
2023-03-03T16:31:54.886Z,1.9
2023-03-03T16:34:00.800Z,1.7
2023-03-03T16:36:00.004Z,2
2023-03-03T16:37:59.167Z,1.3
2023-03-03T16:39:55.463Z,1.6
2023-03-03T16:41:57.852Z,1.9
2023-03-03T16:44:03.646Z,2.5
2023-03-03T16:45:50.827Z,2
2023-03-03T16:48:09.936Z,1.8
2023-03-03T16:49:56.335Z,1.7
2023-03-03T16:51:56.528Z,1.6
2023-03-03T16:53:57.015Z,1.8
2023-03-03T16:55:59.410Z,1.7
2023-03-03T16:58:03.535Z,1.6
2023-03-03T17:00:01.435Z,1.7
2023-03-03T17:01:58.819Z,1.7
2023-03-03T17:04:00.562Z,2.1
2023-03-03T17:05:53.717Z,1.8
2023-03-03T17:08:02.695Z,1.6
2023-03-03T17:10:02.977Z,1.8
2023-03-03T17:12:02.777Z,1.8
2023-03-03T17:14:12.163Z,1.9
2023-03-03T17:16:00.780Z,1.9
2023-03-03T17:17:56.140Z,2.4
2023-03-03T17:20:02.545Z,1.9
2023-03-03T17:22:02.828Z,1.5
2023-03-03T17:24:00.649Z,1.5
2023-03-03T17:25:57.194Z,1.7
2023-03-03T17:28:04.489Z,1.5
2023-03-03T17:30:01.438Z,1.6
2023-03-03T17:31:58.780Z,1.7
2023-03-03T17:34:04.615Z,1.5
2023-03-03T17:35:59.223Z,1.4
2023-03-03T17:37:58.163Z,1.7
2023-03-03T17:40:02.962Z,1.3
2023-03-03T17:41:57.993Z,1.5
2023-03-03T17:43:52.967Z,1.7
2023-03-03T17:45:51.372Z,1.7
2023-03-03T17:48:02.995Z,1.5
2023-03-03T17:50:01.862Z,1.8
2023-03-03T17:52:12.148Z,1.6
2023-03-03T17:54:04.456Z,1.7
2023-03-03T17:56:05.698Z,1.9
2023-03-03T17:58:03.747Z,1.9
2023-03-03T18:00:06.381Z,2.4
2023-03-03T18:01:59.958Z,2.3
2023-03-03T18:04:02.488Z,2
2023-03-03T18:06:08.980Z,1.8
2023-03-03T18:07:58.143Z,2
2023-03-03T18:10:03.038Z,1.7
2023-03-03T18:11:58.406Z,1.6
2023-03-03T18:14:01.559Z,1.9
2023-03-03T18:16:10.790Z,1.8
2023-03-03T18:18:01.554Z,1.7
2023-03-03T18:20:02.931Z,1.8
2023-03-03T18:21:54.312Z,1.8
2023-03-03T18:23:46.775Z,2.1
2023-03-03T18:25:55.905Z,1.6
2023-03-03T18:27:46.916Z,1.7
2023-03-03T18:30:19.596Z,1.4
2023-03-03T18:31:49.055Z,1.4
2023-03-03T18:34:06.601Z,1.5
2023-03-03T18:35:46.075Z,1.6
2023-03-03T18:37:45.863Z,1.7
2023-03-03T18:39:46.489Z,1.5
2023-03-03T18:42:05.127Z,1.3
2023-03-03T18:43:52.651Z,1.6
2023-03-03T18:45:48.759Z,1.8
2023-03-03T18:48:02.946Z,1.5
2023-03-03T18:49:50.663Z,1.9
2023-03-03T18:52:07.227Z,1.7
2023-03-03T18:54:00.761Z,1.7
2023-03-03T18:55:46.281Z,1.5
2023-03-03T18:58:02.328Z,1.6
2023-03-03T19:00:11.245Z,1.8
2023-03-03T19:01:45.646Z,1.8
2023-03-03T19:04:13.323Z,1.7
2023-03-03T19:05:49.132Z,1.8
2023-03-03T19:07:50.484Z,1.8
2023-03-03T19:09:47.976Z,4.4
2023-03-03T19:11:50.033Z,5.5
2023-03-03T19:13:45.646Z,5.2
2023-03-03T19:15:48.205Z,4.3
2023-03-03T19:17:48.876Z,3.1
2023-03-03T19:20:00.770Z,2.4
2023-03-03T19:21:46.943Z,1.9
2023-03-03T19:23:53.159Z,2.1
2023-03-03T19:25:43.139Z,2.1
2023-03-03T19:27:50.540Z,1.9
2023-03-03T19:30:00.202Z,2.3
2023-03-03T19:31:51.222Z,3.4
2023-03-03T19:33:55.777Z,3.2
2023-03-03T19:35:56.715Z,2.4
2023-03-03T19:37:50.444Z,2.3
2023-03-03T19:39:52.573Z,2.1
2023-03-03T19:41:59.313Z,2.1
2023-03-03T19:43:53.053Z,2.1
2023-03-03T19:45:55.928Z,3.6
2023-03-03T19:47:47.496Z,10
2023-03-03T19:49:57.477Z,11.7
2023-03-03T19:51:50.475Z,11.1
2023-03-03T19:53:53.947Z,9.8
2023-03-03T19:55:56.742Z,8.4
2023-03-03T19:57:52.126Z,7.9
2023-03-03T19:59:47.613Z,6.8
2023-03-03T20:01:50.087Z,6.8
2023-03-03T20:03:54.994Z,6.3
2023-03-03T20:05:46.299Z,6.9
2023-03-03T20:07:50.298Z,5.9
2023-03-03T20:09:49.194Z,5.2
2023-03-03T20:11:56.076Z,4.1
2023-03-03T20:13:53.778Z,3.2
2023-03-03T20:15:50.575Z,3
2023-03-03T20:17:52.301Z,3.1
2023-03-03T20:19:48.666Z,2
2023-03-03T20:21:48.522Z,2.1
2023-03-03T20:23:53.485Z,2.2
2023-03-03T20:25:44.651Z,2
2023-03-03T20:27:49.655Z,2
2023-03-03T20:30:01.210Z,1.8
2023-03-03T20:31:49.542Z,2
2023-03-03T20:33:51.673Z,1.8
2023-03-03T20:35:52.351Z,1.7
2023-03-03T20:37:49.112Z,1.7
2023-03-03T20:39:55.988Z,1.9
2023-03-03T20:41:55.047Z,1.9
2023-03-03T20:43:55.384Z,1.8
2023-03-03T20:45:52.021Z,1.7
2023-03-03T20:47:52.540Z,1.4
2023-03-03T20:49:53.528Z,1.7
2023-03-03T20:51:46.100Z,1.9
2023-03-03T20:53:48.257Z,1.8
2023-03-03T20:55:50.732Z,2
2023-03-03T20:57:48.248Z,2.1
2023-03-03T20:59:46.975Z,2
2023-03-03T21:01:47.990Z,1.6
2023-03-03T21:03:41.492Z,1.9
2023-03-03T21:05:55.570Z,1.9
2023-03-03T21:07:50.436Z,1.9
2023-03-03T21:09:39.050Z,1.9
2023-03-03T21:11:43.105Z,1.8
2023-03-03T21:13:40.102Z,2
2023-03-03T21:15:38.307Z,1.8
2023-03-03T21:17:38.293Z,2
2023-03-03T21:19:38.230Z,1.7
2023-03-03T21:21:40.425Z,1.9
2023-03-03T21:23:38.092Z,1.8
2023-03-03T21:25:48.145Z,1.9
2023-03-03T21:27:37.817Z,1.9
2023-03-03T21:29:37.719Z,1.8
2023-03-03T21:31:44.298Z,1.9
2023-03-03T21:33:42.886Z,1.8
2023-03-03T21:35:57.053Z,1.9
2023-03-03T21:37:48.151Z,1.7
2023-03-03T21:39:39.694Z,1.6
2023-03-03T21:41:50.923Z,1.7
2023-03-03T21:43:39.658Z,1.8
2023-03-03T21:45:37.194Z,1.5
2023-03-03T21:47:37.338Z,1.9
2023-03-03T21:49:40.415Z,1.8
2023-03-03T21:51:36.909Z,2
2023-03-03T21:53:36.813Z,1.5
2023-03-03T21:55:36.649Z,1.7
2023-03-03T21:57:36.722Z,1.6
2023-03-03T21:59:36.636Z,1.6
2023-03-03T22:01:38.278Z,1.7
2023-03-03T22:03:36.387Z,1.7
2023-03-03T22:05:36.408Z,1.5
2023-03-03T22:07:36.203Z,1.8
2023-03-03T22:09:37.169Z,1.9
2023-03-03T22:11:36.325Z,1.6
2023-03-03T22:13:35.946Z,1.8
2023-03-03T22:15:35.926Z,1.6
2023-03-03T22:17:35.773Z,1.7
2023-03-03T22:19:35.930Z,1.7
2023-03-03T22:21:37.427Z,1.6
2023-03-03T22:23:35.478Z,1.6
2023-03-03T22:25:35.383Z,1.7
2023-03-03T22:27:35.454Z,1.6
2023-03-03T22:29:35.217Z,1.4
2023-03-03T22:31:35.218Z,1.8
2023-03-03T22:33:35.238Z,1.7
2023-03-03T22:35:35.036Z,1.9
2023-03-03T22:37:34.887Z,1.6
2023-03-03T22:39:34.828Z,1.7
2023-03-03T22:41:34.697Z,1.8
2023-03-03T22:43:34.651Z,1.7
2023-03-03T22:45:34.695Z,1.8
2023-03-03T22:47:34.397Z,1.6
2023-03-03T22:49:34.261Z,1.6
2023-03-03T22:51:34.238Z,1.7
2023-03-03T22:53:34.099Z,1.8
2023-03-03T22:55:34.098Z,1.7
2023-03-03T22:57:33.884Z,1.6
2023-03-03T22:59:33.746Z,1.4
2023-03-03T23:01:33.749Z,1.7
2023-03-03T23:03:33.669Z,1.6
2023-03-03T23:05:34.350Z,1.9
2023-03-03T23:07:33.995Z,1.7
2023-03-03T23:09:33.417Z,1.6
2023-03-03T23:11:33.829Z,2
2023-03-03T23:13:33.108Z,2.1
2023-03-03T23:15:33.186Z,1.8
2023-03-03T23:17:32.988Z,2
2023-03-03T23:19:32.953Z,1.8
2023-03-03T23:21:32.803Z,1.8
2023-03-03T23:23:32.945Z,1.8
2023-03-03T23:25:32.572Z,2.2
2023-03-03T23:27:32.819Z,1.9
2023-03-03T23:29:32.341Z,2
2023-03-03T23:31:32.497Z,2
2023-03-03T23:33:32.231Z,1.8
2023-03-03T23:35:32.159Z,1.6
2023-03-03T23:37:32.164Z,2
2023-03-03T23:39:31.790Z,2.1
2023-03-03T23:41:31.809Z,2.7
2023-03-03T23:43:31.888Z,2.2
2023-03-03T23:45:31.517Z,2
2023-03-03T23:47:31.479Z,1.7
2023-03-03T23:49:31.838Z,2.6
2023-03-03T23:51:31.830Z,2.3
2023-03-03T23:53:31.190Z,2.2
2023-03-03T23:55:31.113Z,2.2
2023-03-03T23:57:31.010Z,1.8
2023-03-03T23:59:30.911Z,2
